sensor_id;sensor_type;location;lat;lon;timestamp;P1;durP1;ratioP1;P2;durP2;ratioP2
70369;SDS011;57790;51.356;-2.906;2022-10-31T00:00:48;18.17;;;2.25;;
70369;SDS011;57790;51.356;-2.906;2022-10-31T00:03:48;14.47;;;2.50;;
70369;SDS011;57790;51.356;-2.906;2022-10-31T00:06:49;13.48;;;1.98;;
70369;SDS011;57790;51.356;-2.906;2022-10-31T00:09:49;19.17;;;2.57;;
70369;SDS011;57790;51.356;-2.906;2022-10-31T00:12:50;18.07;;;2.13;;
70369;SDS011;57790;51.356;-2.906;2022-10-31T00:15:51;16.98;;;2.28;;
70369;SDS011;57790;51.356;-2.906;2022-10-31T00:18:52;14.70;;;1.80;;
70369;SDS011;57790;51.356;-2.906;2022-10-31T00:21:57;14.27;;;1.70;;
70369;SDS011;57790;51.356;-2.906;2022-10-31T00:24:57;14.70;;;1.70;;
70369;SDS011;57790;51.356;-2.906;2022-10-31T00:27:58;17.53;;;1.77;;
70369;SDS011;57790;51.356;-2.906;2022-10-31T00:30:59;14.63;;;2.00;;
70369;SDS011;57790;51.356;-2.906;2022-10-31T00:34:00;16.17;;;2.13;;
70369;SDS011;57790;51.356;-2.906;2022-10-31T00:37:02;19.80;;;2.20;;
70369;SDS011;57790;51.356;-2.906;2022-10-31T00:40:03;16.27;;;1.67;;
70369;SDS011;57790;51.356;-2.906;2022-10-31T00:43:04;18.92;;;1.88;;
70369;SDS011;57790;51.356;-2.906;2022-10-31T00:46:05;24.00;;;3.40;;
70369;SDS011;57790;51.356;-2.906;2022-10-31T00:49:05;16.67;;;2.20;;
70369;SDS011;57790;51.356;-2.906;2022-10-31T00:52:05;13.67;;;2.10;;
70369;SDS011;57790;51.356;-2.906;2022-10-31T00:55:06;18.80;;;2.05;;
70369;SDS011;57790;51.356;-2.906;2022-10-31T00:58:06;16.03;;;1.40;;
70369;SDS011;57790;51.356;-2.906;2022-10-31T01:01:07;11.77;;;2.10;;
70369;SDS011;57790;51.356;-2.906;2022-10-31T01:04:07;17.53;;;2.07;;
70369;SDS011;57790;51.356;-2.906;2022-10-31T01:07:08;15.75;;;1.42;;
70369;SDS011;57790;51.356;-2.906;2022-10-31T01:10:08;17.57;;;2.03;;
70369;SDS011;57790;51.356;-2.906;2022-10-31T01:13:09;14.65;;;1.70;;
70369;SDS011;57790;51.356;-2.906;2022-10-31T01:16:11;13.87;;;1.60;;
70369;SDS011;57790;51.356;-2.906;2022-10-31T01:19:13;12.10;;;1.73;;
70369;SDS011;57790;51.356;-2.906;2022-10-31T01:22:13;12.07;;;1.80;;
70369;SDS011;57790;51.356;-2.906;2022-10-31T01:25:14;15.87;;;1.73;;
70369;SDS011;57790;51.356;-2.906;2022-10-31T01:28:14;14.40;;;1.60;;
70369;SDS011;57790;51.356;-2.906;2022-10-31T01:31:15;11.87;;;1.70;;
70369;SDS011;57790;51.356;-2.906;2022-10-31T01:34:17;17.35;;;1.85;;
70369;SDS011;57790;51.356;-2.906;2022-10-31T01:37:17;13.98;;;1.83;;
70369;SDS011;57790;51.356;-2.906;2022-10-31T01:40:18;12.37;;;1.87;;
70369;SDS011;57790;51.356;-2.906;2022-10-31T01:43:18;14.83;;;1.77;;
70369;SDS011;57790;51.356;-2.906;2022-10-31T01:52:44;17.23;;;1.73;;
70369;SDS011;57790;51.356;-2.906;2022-10-31T01:55:47;14.15;;;1.90;;
70369;SDS011;57790;51.356;-2.906;2022-10-31T01:58:48;12.87;;;1.67;;
70369;SDS011;57790;51.356;-2.906;2022-10-31T02:01:49;12.95;;;1.10;;
70369;SDS011;57790;51.356;-2.906;2022-10-31T02:04:50;15.37;;;1.97;;
70369;SDS011;57790;51.356;-2.906;2022-10-31T02:07:57;13.25;;;1.45;;
70369;SDS011;57790;51.356;-2.906;2022-10-31T02:11:02;15.23;;;1.77;;
70369;SDS011;57790;51.356;-2.906;2022-10-31T02:14:02;14.53;;;1.47;;
70369;SDS011;57790;51.356;-2.906;2022-10-31T02:17:03;11.18;;;1.30;;
70369;SDS011;57790;51.356;-2.906;2022-10-31T02:23:20;13.38;;;2.08;;
70369;SDS011;57790;51.356;-2.906;2022-10-31T02:33:15;13.00;;;1.58;;
70369;SDS011;57790;51.356;-2.906;2022-10-31T02:36:34;14.25;;;1.55;;
70369;SDS011;57790;51.356;-2.906;2022-10-31T02:42:58;9.87;;;1.23;;
70369;SDS011;57790;51.356;-2.906;2022-10-31T02:46:19;13.68;;;1.52;;
70369;SDS011;57790;51.356;-2.906;2022-10-31T02:49:36;12.82;;;1.48;;
70369;SDS011;57790;51.356;-2.906;2022-10-31T02:52:43;11.95;;;1.48;;
70369;SDS011;57790;51.356;-2.906;2022-10-31T02:55:49;15.23;;;1.90;;
70369;SDS011;57790;51.356;-2.906;2022-10-31T02:58:56;18.98;;;2.55;;
70369;SDS011;57790;51.356;-2.906;2022-10-31T03:08:50;16.58;;;2.25;;
70369;SDS011;57790;51.356;-2.906;2022-10-31T03:12:07;17.48;;;2.20;;
70369;SDS011;57790;51.356;-2.906;2022-10-31T03:18:29;18.67;;;1.73;;
70369;SDS011;57790;51.356;-2.906;2022-10-31T03:21:41;12.30;;;1.60;;
70369;SDS011;57790;51.356;-2.906;2022-10-31T03:24:44;12.40;;;1.50;;
70369;SDS011;57790;51.356;-2.906;2022-10-31T03:27:47;15.75;;;1.63;;
70369;SDS011;57790;51.356;-2.906;2022-10-31T03:30:51;16.33;;;1.42;;
70369;SDS011;57790;51.356;-2.906;2022-10-31T03:33:57;11.27;;;1.48;;
70369;SDS011;57790;51.356;-2.906;2022-10-31T03:37:00;17.03;;;1.50;;
70369;SDS011;57790;51.356;-2.906;2022-10-31T03:40:04;15.25;;;1.98;;
70369;SDS011;57790;51.356;-2.906;2022-10-31T03:43:10;15.48;;;1.50;;
70369;SDS011;57790;51.356;-2.906;2022-10-31T03:46:19;13.98;;;1.70;;
70369;SDS011;57790;51.356;-2.906;2022-10-31T03:49:19;12.97;;;1.47;;
70369;SDS011;57790;51.356;-2.906;2022-10-31T03:55:39;13.52;;;1.40;;
70369;SDS011;57790;51.356;-2.906;2022-10-31T03:58:44;11.90;;;1.23;;
70369;SDS011;57790;51.356;-2.906;2022-10-31T04:01:57;13.52;;;1.60;;
70369;SDS011;57790;51.356;-2.906;2022-10-31T04:05:02;18.80;;;1.75;;
70369;SDS011;57790;51.356;-2.906;2022-10-31T04:08:04;14.60;;;1.77;;
70369;SDS011;57790;51.356;-2.906;2022-10-31T04:11:09;14.02;;;1.60;;
70369;SDS011;57790;51.356;-2.906;2022-10-31T04:14:13;13.03;;;1.30;;
70369;SDS011;57790;51.356;-2.906;2022-10-31T04:17:14;15.10;;;1.40;;
70369;SDS011;57790;51.356;-2.906;2022-10-31T04:20:18;13.43;;;1.63;;
70369;SDS011;57790;51.356;-2.906;2022-10-31T04:23:29;12.98;;;1.58;;
70369;SDS011;57790;51.356;-2.906;2022-10-31T04:26:30;12.55;;;1.50;;
70369;SDS011;57790;51.356;-2.906;2022-10-31T04:29:30;12.87;;;1.87;;
70369;SDS011;57790;51.356;-2.906;2022-10-31T04:32:31;17.13;;;1.70;;
70369;SDS011;57790;51.356;-2.906;2022-10-31T04:35:31;14.83;;;1.67;;
70369;SDS011;57790;51.356;-2.906;2022-10-31T04:38:31;15.90;;;2.13;;
70369;SDS011;57790;51.356;-2.906;2022-10-31T04:41:32;11.33;;;1.53;;
70369;SDS011;57790;51.356;-2.906;2022-10-31T04:44:32;14.87;;;1.77;;
70369;SDS011;57790;51.356;-2.906;2022-10-31T04:47:32;16.67;;;2.20;;
70369;SDS011;57790;51.356;-2.906;2022-10-31T04:50:33;13.33;;;1.70;;
70369;SDS011;57790;51.356;-2.906;2022-10-31T04:53:33;11.20;;;1.40;;
70369;SDS011;57790;51.356;-2.906;2022-10-31T04:56:34;13.47;;;1.53;;
70369;SDS011;57790;51.356;-2.906;2022-10-31T04:59:34;14.68;;;1.40;;
70369;SDS011;57790;51.356;-2.906;2022-10-31T05:02:41;11.20;;;1.70;;
70369;SDS011;57790;51.356;-2.906;2022-10-31T05:05:43;11.18;;;1.73;;
70369;SDS011;57790;51.356;-2.906;2022-10-31T05:08:43;14.53;;;1.53;;
70369;SDS011;57790;51.356;-2.906;2022-10-31T05:11:43;19.83;;;2.67;;
70369;SDS011;57790;51.356;-2.906;2022-10-31T05:14:44;12.23;;;1.70;;
70369;SDS011;57790;51.356;-2.906;2022-10-31T05:17:44;12.33;;;1.50;;
70369;SDS011;57790;51.356;-2.906;2022-10-31T05:20:45;11.97;;;1.53;;
70369;SDS011;57790;51.356;-2.906;2022-10-31T05:23:45;15.50;;;2.00;;
70369;SDS011;57790;51.356;-2.906;2022-10-31T05:26:45;9.70;;;1.00;;
70369;SDS011;57790;51.356;-2.906;2022-10-31T05:29:46;16.93;;;1.57;;
70369;SDS011;57790;51.356;-2.906;2022-10-31T05:32:47;9.63;;;1.27;;
70369;SDS011;57790;51.356;-2.906;2022-10-31T05:35:49;12.93;;;1.55;;
70369;SDS011;57790;51.356;-2.906;2022-10-31T05:38:49;10.33;;;1.40;;
70369;SDS011;57790;51.356;-2.906;2022-10-31T05:41:49;15.77;;;1.80;;
70369;SDS011;57790;51.356;-2.906;2022-10-31T05:44:50;12.57;;;1.53;;
70369;SDS011;57790;51.356;-2.906;2022-10-31T05:47:50;14.27;;;1.83;;
70369;SDS011;57790;51.356;-2.906;2022-10-31T05:50:52;17.23;;;1.80;;
70369;SDS011;57790;51.356;-2.906;2022-10-31T05:53:52;13.37;;;1.37;;
70369;SDS011;57790;51.356;-2.906;2022-10-31T05:56:53;16.00;;;1.67;;
70369;SDS011;57790;51.356;-2.906;2022-10-31T05:59:53;14.57;;;1.60;;
70369;SDS011;57790;51.356;-2.906;2022-10-31T06:02:59;13.80;;;1.80;;
70369;SDS011;57790;51.356;-2.906;2022-10-31T06:06:01;13.17;;;1.50;;
70369;SDS011;57790;51.356;-2.906;2022-10-31T06:09:01;12.27;;;1.93;;
70369;SDS011;57790;51.356;-2.906;2022-10-31T06:12:02;12.90;;;1.40;;
70369;SDS011;57790;51.356;-2.906;2022-10-31T06:15:03;12.87;;;1.53;;
70369;SDS011;57790;51.356;-2.906;2022-10-31T06:18:05;10.38;;;1.45;;
70369;SDS011;57790;51.356;-2.906;2022-10-31T06:21:06;14.93;;;2.00;;
70369;SDS011;57790;51.356;-2.906;2022-10-31T06:24:06;14.27;;;1.70;;
70369;SDS011;57790;51.356;-2.906;2022-10-31T06:27:07;15.13;;;1.80;;
70369;SDS011;57790;51.356;-2.906;2022-10-31T06:30:07;16.08;;;1.60;;
70369;SDS011;57790;51.356;-2.906;2022-10-31T06:33:08;14.43;;;1.33;;
70369;SDS011;57790;51.356;-2.906;2022-10-31T06:36:09;11.70;;;1.40;;
70369;SDS011;57790;51.356;-2.906;2022-10-31T06:39:10;14.10;;;1.50;;
70369;SDS011;57790;51.356;-2.906;2022-10-31T06:42:10;11.20;;;1.52;;
70369;SDS011;57790;51.356;-2.906;2022-10-31T06:45:11;10.13;;;1.60;;
70369;SDS011;57790;51.356;-2.906;2022-10-31T06:48:11;12.13;;;1.63;;
70369;SDS011;57790;51.356;-2.906;2022-10-31T06:51:11;14.03;;;1.30;;
70369;SDS011;57790;51.356;-2.906;2022-10-31T06:54:12;16.47;;;1.87;;
70369;SDS011;57790;51.356;-2.906;2022-10-31T06:57:12;15.23;;;2.07;;
70369;SDS011;57790;51.356;-2.906;2022-10-31T07:00:13;12.53;;;1.53;;
70369;SDS011;57790;51.356;-2.906;2022-10-31T07:03:13;13.95;;;1.15;;
70369;SDS011;57790;51.356;-2.906;2022-10-31T07:06:15;14.18;;;1.60;;
70369;SDS011;57790;51.356;-2.906;2022-10-31T07:09:15;12.77;;;1.80;;
70369;SDS011;57790;51.356;-2.906;2022-10-31T07:12:16;16.53;;;1.50;;
70369;SDS011;57790;51.356;-2.906;2022-10-31T07:15:17;20.70;;;2.20;;
70369;SDS011;57790;51.356;-2.906;2022-10-31T07:18:20;16.77;;;2.03;;
70369;SDS011;57790;51.356;-2.906;2022-10-31T07:21:21;12.83;;;1.60;;
70369;SDS011;57790;51.356;-2.906;2022-10-31T07:24:22;10.50;;;1.50;;
70369;SDS011;57790;51.356;-2.906;2022-10-31T07:27:22;14.43;;;1.60;;
70369;SDS011;57790;51.356;-2.906;2022-10-31T07:30:22;12.07;;;1.20;;
70369;SDS011;57790;51.356;-2.906;2022-10-31T07:33:23;11.80;;;1.40;;
70369;SDS011;57790;51.356;-2.906;2022-10-31T07:36:27;13.52;;;1.58;;
70369;SDS011;57790;51.356;-2.906;2022-10-31T07:39:27;11.23;;;1.40;;
70369;SDS011;57790;51.356;-2.906;2022-10-31T07:42:28;14.50;;;1.50;;
70369;SDS011;57790;51.356;-2.906;2022-10-31T07:45:28;14.53;;;1.63;;
70369;SDS011;57790;51.356;-2.906;2022-10-31T07:48:29;12.90;;;1.60;;
70369;SDS011;57790;51.356;-2.906;2022-10-31T07:51:29;13.05;;;1.45;;
70369;SDS011;57790;51.356;-2.906;2022-10-31T07:54:29;11.93;;;1.57;;
70369;SDS011;57790;51.356;-2.906;2022-10-31T07:57:30;13.27;;;2.10;;
70369;SDS011;57790;51.356;-2.906;2022-10-31T08:00:31;12.45;;;1.80;;
70369;SDS011;57790;51.356;-2.906;2022-10-31T08:03:33;10.35;;;1.30;;
70369;SDS011;57790;51.356;-2.906;2022-10-31T08:06:33;15.90;;;1.63;;
70369;SDS011;57790;51.356;-2.906;2022-10-31T08:09:34;13.73;;;1.50;;
70369;SDS011;57790;51.356;-2.906;2022-10-31T08:12:34;9.20;;;1.27;;
70369;SDS011;57790;51.356;-2.906;2022-10-31T08:15:35;11.45;;;1.52;;
70369;SDS011;57790;51.356;-2.906;2022-10-31T08:18:38;13.10;;;1.87;;
70369;SDS011;57790;51.356;-2.906;2022-10-31T08:21:38;11.13;;;1.35;;
70369;SDS011;57790;51.356;-2.906;2022-10-31T08:24:38;19.77;;;1.83;;
70369;SDS011;57790;51.356;-2.906;2022-10-31T08:27:39;15.73;;;1.90;;
70369;SDS011;57790;51.356;-2.906;2022-10-31T08:30:39;14.03;;;1.73;;
70369;SDS011;57790;51.356;-2.906;2022-10-31T08:33:40;13.68;;;1.73;;
70369;SDS011;57790;51.356;-2.906;2022-10-31T08:36:41;14.93;;;1.77;;
70369;SDS011;57790;51.356;-2.906;2022-10-31T08:39:47;11.23;;;1.50;;
70369;SDS011;57790;51.356;-2.906;2022-10-31T08:42:54;11.93;;;1.90;;
70369;SDS011;57790;51.356;-2.906;2022-10-31T08:45:56;12.47;;;1.33;;
70369;SDS011;57790;51.356;-2.906;2022-10-31T08:48:56;9.82;;;1.48;;
70369;SDS011;57790;51.356;-2.906;2022-10-31T08:51:56;15.43;;;1.93;;
70369;SDS011;57790;51.356;-2.906;2022-10-31T08:54:57;14.43;;;1.87;;
70369;SDS011;57790;51.356;-2.906;2022-10-31T08:57:57;13.63;;;2.00;;
70369;SDS011;57790;51.356;-2.906;2022-10-31T09:00:59;11.48;;;1.58;;
70369;SDS011;57790;51.356;-2.906;2022-10-31T09:04:00;15.15;;;1.77;;
70369;SDS011;57790;51.356;-2.906;2022-10-31T09:07:00;13.27;;;1.33;;
70369;SDS011;57790;51.356;-2.906;2022-10-31T09:10:01;12.80;;;1.30;;
70369;SDS011;57790;51.356;-2.906;2022-10-31T09:13:05;11.47;;;1.77;;
70369;SDS011;57790;51.356;-2.906;2022-10-31T09:16:09;10.32;;;1.73;;
70369;SDS011;57790;51.356;-2.906;2022-10-31T09:19:10;15.80;;;1.73;;
70369;SDS011;57790;51.356;-2.906;2022-10-31T09:22:10;13.40;;;1.10;;
70369;SDS011;57790;51.356;-2.906;2022-10-31T09:25:10;13.93;;;1.63;;
70369;SDS011;57790;51.356;-2.906;2022-10-31T09:28:12;11.38;;;1.60;;
70369;SDS011;57790;51.356;-2.906;2022-10-31T09:31:13;12.98;;;1.83;;
70369;SDS011;57790;51.356;-2.906;2022-10-31T09:34:13;13.60;;;2.00;;
70369;SDS011;57790;51.356;-2.906;2022-10-31T09:37:14;16.60;;;1.63;;
70369;SDS011;57790;51.356;-2.906;2022-10-31T09:40:14;11.37;;;1.70;;
70369;SDS011;57790;51.356;-2.906;2022-10-31T09:53:03;13.45;;;1.85;;
70369;SDS011;57790;51.356;-2.906;2022-10-31T09:56:18;8.70;;;1.55;;
70369;SDS011;57790;51.356;-2.906;2022-10-31T09:59:24;11.43;;;1.47;;
70369;SDS011;57790;51.356;-2.906;2022-10-31T10:02:43;9.73;;;1.77;;
70369;SDS011;57790;51.356;-2.906;2022-10-31T10:05:52;13.65;;;1.50;;
70369;SDS011;57790;51.356;-2.906;2022-10-31T10:09:01;15.57;;;2.20;;
70369;SDS011;57790;51.356;-2.906;2022-10-31T10:15:36;13.73;;;1.80;;
70369;SDS011;57790;51.356;-2.906;2022-10-31T10:22:06;10.98;;;1.50;;
70369;SDS011;57790;51.356;-2.906;2022-10-31T10:28:40;13.50;;;2.07;;
70369;SDS011;57790;51.356;-2.906;2022-10-31T10:31:43;11.38;;;1.55;;
70369;SDS011;57790;51.356;-2.906;2022-10-31T10:34:52;12.40;;;1.58;;
70369;SDS011;57790;51.356;-2.906;2022-10-31T10:41:32;12.18;;;1.52;;
70369;SDS011;57790;51.356;-2.906;2022-10-31T10:44:33;13.17;;;1.60;;
70369;SDS011;57790;51.356;-2.906;2022-10-31T10:47:58;12.88;;;1.92;;
70369;SDS011;57790;51.356;-2.906;2022-10-31T10:51:12;11.85;;;1.88;;
70369;SDS011;57790;51.356;-2.906;2022-10-31T10:54:24;12.18;;;1.65;;
70369;SDS011;57790;51.356;-2.906;2022-10-31T10:57:48;9.98;;;1.38;;
70369;SDS011;57790;51.356;-2.906;2022-10-31T11:01:01;9.63;;;1.47;;
70369;SDS011;57790;51.356;-2.906;2022-10-31T11:04:14;10.57;;;1.52;;
70369;SDS011;57790;51.356;-2.906;2022-10-31T11:07:38;11.23;;;1.60;;
70369;SDS011;57790;51.356;-2.906;2022-10-31T11:10:39;10.90;;;1.10;;
70369;SDS011;57790;51.356;-2.906;2022-10-31T11:13:40;8.70;;;1.60;;
70369;SDS011;57790;51.356;-2.906;2022-10-31T11:16:43;8.68;;;1.00;;
70369;SDS011;57790;51.356;-2.906;2022-10-31T11:19:47;10.32;;;1.20;;
70369;SDS011;57790;51.356;-2.906;2022-10-31T11:22:48;11.20;;;1.70;;
70369;SDS011;57790;51.356;-2.906;2022-10-31T11:25:50;9.25;;;1.80;;
70369;SDS011;57790;51.356;-2.906;2022-10-31T11:28:56;9.95;;;1.20;;
70369;SDS011;57790;51.356;-2.906;2022-10-31T11:31:58;11.80;;;1.37;;
70369;SDS011;57790;51.356;-2.906;2022-10-31T11:35:01;10.25;;;1.40;;
70369;SDS011;57790;51.356;-2.906;2022-10-31T11:38:12;9.05;;;1.10;;
70369;SDS011;57790;51.356;-2.906;2022-10-31T11:41:42;9.50;;;1.42;;
70369;SDS011;57790;51.356;-2.906;2022-10-31T11:44:43;7.95;;;1.23;;
70369;SDS011;57790;51.356;-2.906;2022-10-31T11:47:46;7.97;;;1.30;;
70369;SDS011;57790;51.356;-2.906;2022-10-31T11:50:50;8.73;;;1.35;;
70369;SDS011;57790;51.356;-2.906;2022-10-31T11:53:54;10.07;;;1.05;;
70369;SDS011;57790;51.356;-2.906;2022-10-31T11:56:58;8.20;;;1.30;;
70369;SDS011;57790;51.356;-2.906;2022-10-31T12:00:02;9.97;;;1.17;;
70369;SDS011;57790;51.356;-2.906;2022-10-31T12:06:21;8.38;;;1.50;;
70369;SDS011;57790;51.356;-2.906;2022-10-31T12:09:28;11.67;;;1.60;;
70369;SDS011;57790;51.356;-2.906;2022-10-31T12:15:57;9.57;;;1.35;;
70369;SDS011;57790;51.356;-2.906;2022-10-31T12:19:36;9.38;;;1.25;;
70369;SDS011;57790;51.356;-2.906;2022-10-31T12:23:09;8.07;;;1.40;;
70369;SDS011;57790;51.356;-2.906;2022-10-31T12:26:20;10.30;;;1.73;;
70369;SDS011;57790;51.356;-2.906;2022-10-31T12:33:09;9.07;;;1.20;;
70369;SDS011;57790;51.356;-2.906;2022-10-31T12:45:53;7.70;;;1.10;;
70369;SDS011;57790;51.356;-2.906;2022-10-31T12:56:00;5.70;;;1.00;;
70369;SDS011;57790;51.356;-2.906;2022-10-31T12:59:29;6.40;;;0.82;;
70369;SDS011;57790;51.356;-2.906;2022-10-31T13:02:36;4.03;;;0.98;;
70369;SDS011;57790;51.356;-2.906;2022-10-31T13:06:04;6.20;;;1.10;;
70369;SDS011;57790;51.356;-2.906;2022-10-31T13:12:57;7.72;;;1.08;;
70369;SDS011;57790;51.356;-2.906;2022-10-31T13:16:04;7.93;;;1.00;;
70369;SDS011;57790;51.356;-2.906;2022-10-31T13:19:18;5.20;;;1.00;;
70369;SDS011;57790;51.356;-2.906;2022-10-31T13:22:23;7.33;;;1.00;;
70369;SDS011;57790;51.356;-2.906;2022-10-31T13:25:31;8.88;;;1.23;;
70369;SDS011;57790;51.356;-2.906;2022-10-31T13:28:43;4.88;;;0.80;;
70369;SDS011;57790;51.356;-2.906;2022-10-31T13:31:46;6.00;;;1.00;;
70369;SDS011;57790;51.356;-2.906;2022-10-31T13:34:47;5.20;;;0.80;;
70369;SDS011;57790;51.356;-2.906;2022-10-31T13:38:08;6.53;;;1.00;;
70369;SDS011;57790;51.356;-2.906;2022-10-31T13:44:24;4.88;;;1.00;;
70369;SDS011;57790;51.356;-2.906;2022-10-31T13:47:27;7.57;;;1.23;;
70369;SDS011;57790;51.356;-2.906;2022-10-31T13:50:30;7.18;;;0.88;;
70369;SDS011;57790;51.356;-2.906;2022-10-31T13:56:35;6.10;;;1.00;;
70369;SDS011;57790;51.356;-2.906;2022-10-31T13:59:36;6.53;;;1.20;;
70369;SDS011;57790;51.356;-2.906;2022-10-31T14:02:37;4.90;;;0.85;;
70369;SDS011;57790;51.356;-2.906;2022-10-31T14:05:51;5.85;;;0.95;;
70369;SDS011;57790;51.356;-2.906;2022-10-31T14:08:53;6.30;;;1.20;;
70369;SDS011;57790;51.356;-2.906;2022-10-31T14:11:54;9.32;;;1.05;;
70369;SDS011;57790;51.356;-2.906;2022-10-31T14:15:00;6.80;;;1.00;;
70369;SDS011;57790;51.356;-2.906;2022-10-31T14:18:06;7.70;;;1.02;;
70369;SDS011;57790;51.356;-2.906;2022-10-31T14:30:25;7.30;;;1.17;;
70369;SDS011;57790;51.356;-2.906;2022-10-31T14:33:28;9.00;;;1.02;;
70369;SDS011;57790;51.356;-2.906;2022-10-31T14:36:39;6.70;;;0.90;;
70369;SDS011;57790;51.356;-2.906;2022-10-31T14:46:41;4.27;;;0.90;;
70369;SDS011;57790;51.356;-2.906;2022-10-31T14:53:12;7.03;;;1.20;;
70369;SDS011;57790;51.356;-2.906;2022-10-31T14:56:19;6.95;;;1.20;;
70369;SDS011;57790;51.356;-2.906;2022-10-31T14:59:26;7.00;;;1.02;;
70369;SDS011;57790;51.356;-2.906;2022-10-31T15:02:32;7.70;;;1.37;;
70369;SDS011;57790;51.356;-2.906;2022-10-31T15:05:42;6.13;;;1.10;;
70369;SDS011;57790;51.356;-2.906;2022-10-31T15:08:51;5.97;;;1.50;;
70369;SDS011;57790;51.356;-2.906;2022-10-31T15:11:54;5.75;;;1.00;;
70369;SDS011;57790;51.356;-2.906;2022-10-31T15:14:54;5.60;;;0.90;;
70369;SDS011;57790;51.356;-2.906;2022-10-31T15:17:57;6.75;;;1.05;;
70369;SDS011;57790;51.356;-2.906;2022-10-31T15:20:59;4.70;;;1.08;;
70369;SDS011;57790;51.356;-2.906;2022-10-31T15:24:00;6.93;;;0.90;;
70369;SDS011;57790;51.356;-2.906;2022-10-31T15:27:02;5.32;;;1.10;;
70369;SDS011;57790;51.356;-2.906;2022-10-31T15:30:15;7.35;;;1.23;;
70369;SDS011;57790;51.356;-2.906;2022-10-31T15:33:22;6.37;;;0.90;;
70369;SDS011;57790;51.356;-2.906;2022-10-31T15:36:24;7.28;;;1.40;;
70369;SDS011;57790;51.356;-2.906;2022-10-31T15:39:26;5.78;;;1.00;;
70369;SDS011;57790;51.356;-2.906;2022-10-31T15:42:30;7.30;;;1.30;;
70369;SDS011;57790;51.356;-2.906;2022-10-31T15:45:35;7.38;;;0.90;;
70369;SDS011;57790;51.356;-2.906;2022-10-31T15:48:36;5.47;;;0.80;;
70369;SDS011;57790;51.356;-2.906;2022-10-31T15:51:38;7.30;;;1.17;;
70369;SDS011;57790;51.356;-2.906;2022-10-31T15:54:47;6.30;;;1.20;;
70369;SDS011;57790;51.356;-2.906;2022-10-31T15:57:51;6.43;;;1.42;;
70369;SDS011;57790;51.356;-2.906;2022-10-31T16:00:58;7.72;;;1.20;;
70369;SDS011;57790;51.356;-2.906;2022-10-31T16:03:59;4.55;;;1.02;;
70369;SDS011;57790;51.356;-2.906;2022-10-31T16:07:24;6.25;;;1.17;;
70369;SDS011;57790;51.356;-2.906;2022-10-31T16:10:25;8.10;;;1.73;;
70369;SDS011;57790;51.356;-2.906;2022-10-31T16:13:28;6.80;;;1.30;;
70369;SDS011;57790;51.356;-2.906;2022-10-31T16:16:31;5.18;;;1.02;;
70369;SDS011;57790;51.356;-2.906;2022-10-31T16:19:33;6.57;;;0.95;;
70369;SDS011;57790;51.356;-2.906;2022-10-31T16:22:37;7.65;;;1.27;;
70369;SDS011;57790;51.356;-2.906;2022-10-31T16:25:38;8.27;;;1.10;;
70369;SDS011;57790;51.356;-2.906;2022-10-31T16:28:49;11.13;;;1.27;;
70369;SDS011;57790;51.356;-2.906;2022-10-31T16:31:51;6.28;;;1.38;;
70369;SDS011;57790;51.356;-2.906;2022-10-31T16:34:59;5.43;;;1.17;;
70369;SDS011;57790;51.356;-2.906;2022-10-31T16:38:08;7.38;;;1.13;;
70369;SDS011;57790;51.356;-2.906;2022-10-31T16:41:09;6.35;;;1.13;;
70369;SDS011;57790;51.356;-2.906;2022-10-31T16:44:14;7.40;;;1.37;;
70369;SDS011;57790;51.356;-2.906;2022-10-31T16:47:18;5.30;;;1.10;;
70369;SDS011;57790;51.356;-2.906;2022-10-31T16:50:20;6.73;;;1.27;;
70369;SDS011;57790;51.356;-2.906;2022-10-31T16:53:25;8.48;;;1.38;;
70369;SDS011;57790;51.356;-2.906;2022-10-31T16:56:29;5.37;;;1.10;;
70369;SDS011;57790;51.356;-2.906;2022-10-31T16:59:32;5.35;;;1.42;;
70369;SDS011;57790;51.356;-2.906;2022-10-31T17:02:35;8.10;;;1.30;;
70369;SDS011;57790;51.356;-2.906;2022-10-31T17:05:37;8.40;;;1.30;;
70369;SDS011;57790;51.356;-2.906;2022-10-31T17:08:38;6.67;;;1.33;;
70369;SDS011;57790;51.356;-2.906;2022-10-31T17:11:41;7.03;;;1.67;;
70369;SDS011;57790;51.356;-2.906;2022-10-31T17:14:46;6.97;;;1.80;;
70369;SDS011;57790;51.356;-2.906;2022-10-31T17:17:50;5.65;;;1.50;;
70369;SDS011;57790;51.356;-2.906;2022-10-31T17:20:54;9.02;;;2.28;;
70369;SDS011;57790;51.356;-2.906;2022-10-31T17:23:58;10.27;;;2.00;;
70369;SDS011;57790;51.356;-2.906;2022-10-31T17:26:58;8.07;;;2.07;;
70369;SDS011;57790;51.356;-2.906;2022-10-31T17:29:58;7.57;;;1.65;;
70369;SDS011;57790;51.356;-2.906;2022-10-31T17:32:59;7.97;;;2.20;;
70369;SDS011;57790;51.356;-2.906;2022-10-31T17:36:01;9.63;;;1.87;;
70369;SDS011;57790;51.356;-2.906;2022-10-31T17:39:02;8.55;;;1.98;;
70369;SDS011;57790;51.356;-2.906;2022-10-31T17:42:08;9.93;;;1.80;;
70369;SDS011;57790;51.356;-2.906;2022-10-31T17:45:09;11.13;;;3.20;;
70369;SDS011;57790;51.356;-2.906;2022-10-31T17:48:10;8.47;;;2.47;;
70369;SDS011;57790;51.356;-2.906;2022-10-31T17:51:11;10.75;;;2.72;;
70369;SDS011;57790;51.356;-2.906;2022-10-31T17:54:12;8.00;;;1.90;;
70369;SDS011;57790;51.356;-2.906;2022-10-31T17:57:12;11.77;;;2.13;;
70369;SDS011;57790;51.356;-2.906;2022-10-31T18:00:14;6.57;;;1.90;;
70369;SDS011;57790;51.356;-2.906;2022-10-31T18:03:17;8.00;;;1.50;;
70369;SDS011;57790;51.356;-2.906;2022-10-31T18:06:17;6.47;;;1.17;;
70369;SDS011;57790;51.356;-2.906;2022-10-31T18:09:18;7.93;;;1.40;;
70369;SDS011;57790;51.356;-2.906;2022-10-31T18:12:18;14.37;;;7.30;;
70369;SDS011;57790;51.356;-2.906;2022-10-31T18:15:18;10.13;;;4.00;;
70369;SDS011;57790;51.356;-2.906;2022-10-31T18:18:19;6.03;;;1.50;;
70369;SDS011;57790;51.356;-2.906;2022-10-31T18:21:20;5.18;;;1.10;;
70369;SDS011;57790;51.356;-2.906;2022-10-31T18:24:21;6.30;;;1.20;;
70369;SDS011;57790;51.356;-2.906;2022-10-31T18:27:21;5.47;;;0.90;;
70369;SDS011;57790;51.356;-2.906;2022-10-31T18:30:22;2.70;;;0.70;;
70369;SDS011;57790;51.356;-2.906;2022-10-31T18:33:22;2.87;;;0.90;;
70369;SDS011;57790;51.356;-2.906;2022-10-31T18:36:23;5.17;;;1.70;;
70369;SDS011;57790;51.356;-2.906;2022-10-31T18:39:24;7.93;;;2.90;;
70369;SDS011;57790;51.356;-2.906;2022-10-31T18:42:24;6.73;;;2.60;;
70369;SDS011;57790;51.356;-2.906;2022-10-31T18:45:25;7.77;;;2.97;;
70369;SDS011;57790;51.356;-2.906;2022-10-31T18:48:25;8.03;;;3.33;;
70369;SDS011;57790;51.356;-2.906;2022-10-31T18:51:30;8.05;;;2.60;;
70369;SDS011;57790;51.356;-2.906;2022-10-31T18:54:30;5.53;;;1.70;;
70369;SDS011;57790;51.356;-2.906;2022-10-31T18:57:30;6.45;;;1.88;;
70369;SDS011;57790;51.356;-2.906;2022-10-31T19:00:31;7.70;;;2.17;;
70369;SDS011;57790;51.356;-2.906;2022-10-31T19:03:31;7.30;;;2.33;;
70369;SDS011;57790;51.356;-2.906;2022-10-31T19:06:32;6.57;;;2.00;;
70369;SDS011;57790;51.356;-2.906;2022-10-31T19:09:33;5.80;;;1.80;;
70369;SDS011;57790;51.356;-2.906;2022-10-31T19:12:33;7.80;;;1.90;;
70369;SDS011;57790;51.356;-2.906;2022-10-31T19:15:34;7.40;;;2.30;;
70369;SDS011;57790;51.356;-2.906;2022-10-31T19:18:35;6.07;;;2.08;;
70369;SDS011;57790;51.356;-2.906;2022-10-31T19:21:39;11.50;;;4.57;;
70369;SDS011;57790;51.356;-2.906;2022-10-31T19:24:39;9.20;;;3.30;;
70369;SDS011;57790;51.356;-2.906;2022-10-31T19:27:40;8.30;;;3.07;;
70369;SDS011;57790;51.356;-2.906;2022-10-31T19:30:40;9.00;;;2.90;;
70369;SDS011;57790;51.356;-2.906;2022-10-31T19:33:40;9.43;;;3.00;;
70369;SDS011;57790;51.356;-2.906;2022-10-31T19:36:41;9.03;;;3.00;;
70369;SDS011;57790;51.356;-2.906;2022-10-31T19:39:42;11.55;;;3.13;;
70369;SDS011;57790;51.356;-2.906;2022-10-31T19:42:42;12.07;;;3.77;;
70369;SDS011;57790;51.356;-2.906;2022-10-31T19:45:51;11.53;;;3.50;;
70369;SDS011;57790;51.356;-2.906;2022-10-31T19:48:53;10.73;;;3.83;;
70369;SDS011;57790;51.356;-2.906;2022-10-31T19:51:53;17.20;;;4.53;;